sensor_id;sensor_type;location;lat;lon;timestamp;P1;durP1;ratioP1;P2;durP2;ratioP2
44766;SDS011;30487;48.716;9.272;2023-05-10T00:00:14;1.20;;;0.70;;
44766;SDS011;30487;48.716;9.272;2023-05-10T00:02:40;1.63;;;0.63;;
44766;SDS011;30487;48.716;9.272;2023-05-10T00:05:06;4.20;;;0.60;;
44766;SDS011;30487;48.716;9.272;2023-05-10T00:07:32;1.13;;;0.70;;
44766;SDS011;30487;48.716;9.272;2023-05-10T00:09:57;1.40;;;0.80;;
44766;SDS011;30487;48.716;9.272;2023-05-10T00:12:23;1.60;;;0.60;;
44766;SDS011;30487;48.716;9.272;2023-05-10T00:14:49;3.55;;;0.70;;
44766;SDS011;30487;48.716;9.272;2023-05-10T00:17:14;4.53;;;0.65;;
44766;SDS011;30487;48.716;9.272;2023-05-10T00:19:40;0.90;;;0.57;;
44766;SDS011;30487;48.716;9.272;2023-05-10T00:22:05;2.03;;;0.57;;
44766;SDS011;30487;48.716;9.272;2023-05-10T00:24:31;1.67;;;0.50;;
44766;SDS011;30487;48.716;9.272;2023-05-10T00:26:56;1.13;;;0.40;;
44766;SDS011;30487;48.716;9.272;2023-05-10T00:29:22;1.10;;;0.40;;
44766;SDS011;30487;48.716;9.272;2023-05-10T00:31:47;1.20;;;0.40;;
44766;SDS011;30487;48.716;9.272;2023-05-10T00:34:13;0.20;;;0.20;;
44766;SDS011;30487;48.716;9.272;2023-05-10T00:36:38;1.98;;;0.30;;
44766;SDS011;30487;48.716;9.272;2023-05-10T00:39:04;1.80;;;0.40;;
44766;SDS011;30487;48.716;9.272;2023-05-10T00:41:30;0.30;;;0.30;;
44766;SDS011;30487;48.716;9.272;2023-05-10T00:43:58;1.98;;;0.30;;
44766;SDS011;30487;48.716;9.272;2023-05-10T00:46:24;0.25;;;0.25;;
44766;SDS011;30487;48.716;9.272;2023-05-10T00:48:50;1.20;;;0.30;;
44766;SDS011;30487;48.716;9.272;2023-05-10T00:51:16;0.98;;;0.40;;
44766;SDS011;30487;48.716;9.272;2023-05-10T00:53:43;0.40;;;0.30;;
44766;SDS011;30487;48.716;9.272;2023-05-10T00:56:10;1.58;;;0.30;;
44766;SDS011;30487;48.716;9.272;2023-05-10T00:58:35;0.38;;;0.30;;
44766;SDS011;30487;48.716;9.272;2023-05-10T01:01:01;2.28;;;0.30;;
44766;SDS011;30487;48.716;9.272;2023-05-10T01:03:27;0.20;;;0.20;;
44766;SDS011;30487;48.716;9.272;2023-05-10T01:05:53;0.52;;;0.30;;
44766;SDS011;30487;48.716;9.272;2023-05-10T01:08:20;2.03;;;0.30;;
44766;SDS011;30487;48.716;9.272;2023-05-10T01:10:46;0.25;;;0.22;;
44766;SDS011;30487;48.716;9.272;2023-05-10T01:13:14;0.20;;;0.20;;
44766;SDS011;30487;48.716;9.272;2023-05-10T01:16:09;1.52;;;0.20;;
44766;SDS011;30487;48.716;9.272;2023-05-10T01:18:39;0.28;;;0.20;;
44766;SDS011;30487;48.716;9.272;2023-05-10T01:30:00;1.52;;;0.25;;
44766;SDS011;30487;48.716;9.272;2023-05-10T01:32:39;0.20;;;0.20;;
44766;SDS011;30487;48.716;9.272;2023-05-10T01:38:13;0.40;;;0.20;;
44766;SDS011;30487;48.716;9.272;2023-05-10T01:46:43;1.40;;;0.20;;
44766;SDS011;30487;48.716;9.272;2023-05-10T01:49:20;1.98;;;0.30;;
44766;SDS011;30487;48.716;9.272;2023-05-10T01:51:50;2.17;;;0.30;;
44766;SDS011;30487;48.716;9.272;2023-05-10T01:54:22;0.30;;;0.28;;
44766;SDS011;30487;48.716;9.272;2023-05-10T01:56:50;0.50;;;0.30;;
44766;SDS011;30487;48.716;9.272;2023-05-10T01:59:20;0.30;;;0.30;;
44766;SDS011;30487;48.716;9.272;2023-05-10T02:01:47;1.25;;;0.25;;
44766;SDS011;30487;48.716;9.272;2023-05-10T02:04:14;0.40;;;0.30;;
44766;SDS011;30487;48.716;9.272;2023-05-10T02:06:42;0.20;;;0.20;;
44766;SDS011;30487;48.716;9.272;2023-05-10T02:09:10;1.65;;;0.30;;
44766;SDS011;30487;48.716;9.272;2023-05-10T02:11:41;1.55;;;0.30;;
44766;SDS011;30487;48.716;9.272;2023-05-10T02:14:07;0.10;;;0.10;;
44766;SDS011;30487;48.716;9.272;2023-05-10T02:16:35;0.43;;;0.20;;
44766;SDS011;30487;48.716;9.272;2023-05-10T02:19:02;0.52;;;0.30;;
44766;SDS011;30487;48.716;9.272;2023-05-10T02:21:29;0.38;;;0.28;;
44766;SDS011;30487;48.716;9.272;2023-05-10T02:23:55;0.40;;;0.20;;
44766;SDS011;30487;48.716;9.272;2023-05-10T02:26:22;1.15;;;0.30;;
44766;SDS011;30487;48.716;9.272;2023-05-10T02:28:49;1.45;;;0.20;;
44766;SDS011;30487;48.716;9.272;2023-05-10T02:31:16;0.63;;;0.20;;
44766;SDS011;30487;48.716;9.272;2023-05-10T02:33:43;0.20;;;0.20;;
44766;SDS011;30487;48.716;9.272;2023-05-10T02:36:10;0.88;;;0.20;;
44766;SDS011;30487;48.716;9.272;2023-05-10T02:38:38;0.22;;;0.20;;
44766;SDS011;30487;48.716;9.272;2023-05-10T02:41:05;0.43;;;0.30;;
44766;SDS011;30487;48.716;9.272;2023-05-10T02:43:33;0.90;;;0.40;;
44766;SDS011;30487;48.716;9.272;2023-05-10T02:46:00;1.00;;;0.20;;
44766;SDS011;30487;48.716;9.272;2023-05-10T02:48:26;1.00;;;0.30;;
44766;SDS011;30487;48.716;9.272;2023-05-10T02:50:52;0.52;;;0.20;;
44766;SDS011;30487;48.716;9.272;2023-05-10T02:53:22;0.73;;;0.20;;
44766;SDS011;30487;48.716;9.272;2023-05-10T02:55:55;0.82;;;0.20;;
44766;SDS011;30487;48.716;9.272;2023-05-10T02:58:24;0.32;;;0.30;;
44766;SDS011;30487;48.716;9.272;2023-05-10T03:00:50;0.20;;;0.20;;
44766;SDS011;30487;48.716;9.272;2023-05-10T03:03:16;0.30;;;0.20;;
44766;SDS011;30487;48.716;9.272;2023-05-10T03:05:41;1.27;;;0.30;;
44766;SDS011;30487;48.716;9.272;2023-05-10T03:08:07;1.92;;;0.30;;
44766;SDS011;30487;48.716;9.272;2023-05-10T03:10:33;0.63;;;0.30;;
44766;SDS011;30487;48.716;9.272;2023-05-10T03:13:07;0.25;;;0.25;;
44766;SDS011;30487;48.716;9.272;2023-05-10T03:16:01;0.40;;;0.28;;
44766;SDS011;30487;48.716;9.272;2023-05-10T03:21:16;0.50;;;0.30;;
44766;SDS011;30487;48.716;9.272;2023-05-10T03:23:47;0.70;;;0.30;;
44766;SDS011;30487;48.716;9.272;2023-05-10T03:26:26;0.50;;;0.30;;
44766;SDS011;30487;48.716;9.272;2023-05-10T03:28:53;0.52;;;0.20;;
44766;SDS011;30487;48.716;9.272;2023-05-10T03:31:19;0.85;;;0.43;;
44766;SDS011;30487;48.716;9.272;2023-05-10T03:33:46;0.30;;;0.30;;
44766;SDS011;30487;48.716;9.272;2023-05-10T03:36:12;0.40;;;0.30;;
44766;SDS011;30487;48.716;9.272;2023-05-10T03:38:38;0.75;;;0.38;;
44766;SDS011;30487;48.716;9.272;2023-05-10T03:41:04;0.65;;;0.40;;
44766;SDS011;30487;48.716;9.272;2023-05-10T03:43:30;1.88;;;0.38;;
44766;SDS011;30487;48.716;9.272;2023-05-10T03:45:55;2.53;;;0.40;;
44766;SDS011;30487;48.716;9.272;2023-05-10T03:48:21;0.60;;;0.30;;
44766;SDS011;30487;48.716;9.272;2023-05-10T03:50:46;1.50;;;0.40;;
44766;SDS011;30487;48.716;9.272;2023-05-10T03:53:12;2.08;;;0.40;;
44766;SDS011;30487;48.716;9.272;2023-05-10T03:55:37;0.55;;;0.45;;
44766;SDS011;30487;48.716;9.272;2023-05-10T03:58:03;0.52;;;0.32;;
44766;SDS011;30487;48.716;9.272;2023-05-10T04:00:28;0.88;;;0.40;;
44766;SDS011;30487;48.716;9.272;2023-05-10T04:02:55;2.53;;;0.50;;
44766;SDS011;30487;48.716;9.272;2023-05-10T04:05:20;0.60;;;0.40;;
44766;SDS011;30487;48.716;9.272;2023-05-10T04:07:46;2.15;;;0.40;;
44766;SDS011;30487;48.716;9.272;2023-05-10T04:10:14;2.25;;;0.40;;
44766;SDS011;30487;48.716;9.272;2023-05-10T04:12:41;3.50;;;0.50;;
44766;SDS011;30487;48.716;9.272;2023-05-10T04:15:07;1.23;;;0.45;;
44766;SDS011;30487;48.716;9.272;2023-05-10T04:17:33;0.95;;;0.40;;
44766;SDS011;30487;48.716;9.272;2023-05-10T04:19:58;0.50;;;0.43;;
44766;SDS011;30487;48.716;9.272;2023-05-10T04:22:24;0.70;;;0.43;;
44766;SDS011;30487;48.716;9.272;2023-05-10T04:24:49;1.05;;;0.50;;
44766;SDS011;30487;48.716;9.272;2023-05-10T04:27:15;0.82;;;0.50;;
44766;SDS011;30487;48.716;9.272;2023-05-10T04:29:41;1.52;;;0.57;;
44766;SDS011;30487;48.716;9.272;2023-05-10T04:32:06;2.10;;;0.70;;
44766;SDS011;30487;48.716;9.272;2023-05-10T04:34:32;4.00;;;0.65;;
44766;SDS011;30487;48.716;9.272;2023-05-10T04:36:59;2.15;;;0.60;;
44766;SDS011;30487;48.716;9.272;2023-05-10T04:39:24;1.20;;;0.50;;
44766;SDS011;30487;48.716;9.272;2023-05-10T04:41:50;0.45;;;0.30;;
44766;SDS011;30487;48.716;9.272;2023-05-10T04:44:18;1.02;;;0.55;;
44766;SDS011;30487;48.716;9.272;2023-05-10T04:46:44;0.82;;;0.50;;
44766;SDS011;30487;48.716;9.272;2023-05-10T04:49:10;0.80;;;0.40;;
44766;SDS011;30487;48.716;9.272;2023-05-10T04:51:35;0.77;;;0.52;;
44766;SDS011;30487;48.716;9.272;2023-05-10T04:54:01;1.02;;;0.50;;
44766;SDS011;30487;48.716;9.272;2023-05-10T04:56:26;0.90;;;0.50;;
44766;SDS011;30487;48.716;9.272;2023-05-10T04:58:52;1.92;;;0.52;;
44766;SDS011;30487;48.716;9.272;2023-05-10T05:01:18;2.00;;;0.70;;
44766;SDS011;30487;48.716;9.272;2023-05-10T05:03:43;2.92;;;0.70;;
44766;SDS011;30487;48.716;9.272;2023-05-10T05:06:09;0.80;;;0.55;;
44766;SDS011;30487;48.716;9.272;2023-05-10T05:08:34;1.90;;;0.65;;
44766;SDS011;30487;48.716;9.272;2023-05-10T05:11:00;1.08;;;0.60;;
44766;SDS011;30487;48.716;9.272;2023-05-10T05:13:26;2.10;;;0.80;;
44766;SDS011;30487;48.716;9.272;2023-05-10T05:15:51;1.08;;;0.60;;
44766;SDS011;30487;48.716;9.272;2023-05-10T05:18:17;0.77;;;0.63;;
44766;SDS011;30487;48.716;9.272;2023-05-10T05:20:42;3.78;;;0.73;;
44766;SDS011;30487;48.716;9.272;2023-05-10T05:23:08;1.17;;;0.65;;
44766;SDS011;30487;48.716;9.272;2023-05-10T05:25:33;2.90;;;0.65;;
44766;SDS011;30487;48.716;9.272;2023-05-10T05:27:59;1.05;;;0.50;;
44766;SDS011;30487;48.716;9.272;2023-05-10T05:30:24;4.43;;;0.73;;
44766;SDS011;30487;48.716;9.272;2023-05-10T05:32:50;1.10;;;0.55;;
44766;SDS011;30487;48.716;9.272;2023-05-10T05:35:16;2.15;;;0.70;;
44766;SDS011;30487;48.716;9.272;2023-05-10T05:37:41;2.05;;;0.73;;
44766;SDS011;30487;48.716;9.272;2023-05-10T05:40:07;3.53;;;0.70;;
44766;SDS011;30487;48.716;9.272;2023-05-10T05:42:33;2.33;;;0.80;;
44766;SDS011;30487;48.716;9.272;2023-05-10T05:44:58;1.98;;;0.68;;
44766;SDS011;30487;48.716;9.272;2023-05-10T05:47:24;1.52;;;0.60;;
44766;SDS011;30487;48.716;9.272;2023-05-10T05:49:50;1.67;;;0.68;;
44766;SDS011;30487;48.716;9.272;2023-05-10T05:52:15;2.25;;;0.60;;
44766;SDS011;30487;48.716;9.272;2023-05-10T05:54:41;1.20;;;0.80;;
44766;SDS011;30487;48.716;9.272;2023-05-10T05:57:07;0.88;;;0.60;;
44766;SDS011;30487;48.716;9.272;2023-05-10T05:59:33;1.00;;;0.70;;
44766;SDS011;30487;48.716;9.272;2023-05-10T06:01:58;2.65;;;0.60;;
44766;SDS011;30487;48.716;9.272;2023-05-10T06:04:24;1.10;;;0.63;;
44766;SDS011;30487;48.716;9.272;2023-05-10T06:06:49;1.30;;;0.60;;
44766;SDS011;30487;48.716;9.272;2023-05-10T06:09:15;3.55;;;0.60;;
44766;SDS011;30487;48.716;9.272;2023-05-10T06:11:40;0.65;;;0.50;;
44766;SDS011;30487;48.716;9.272;2023-05-10T06:14:06;1.90;;;0.60;;
44766;SDS011;30487;48.716;9.272;2023-05-10T06:16:33;5.13;;;0.70;;
44766;SDS011;30487;48.716;9.272;2023-05-10T06:18:59;1.13;;;0.70;;
44766;SDS011;30487;48.716;9.272;2023-05-10T06:21:25;2.05;;;0.80;;
44766;SDS011;30487;48.716;9.272;2023-05-10T06:23:50;1.05;;;0.60;;
44766;SDS011;30487;48.716;9.272;2023-05-10T06:26:16;1.50;;;0.77;;
44766;SDS011;30487;48.716;9.272;2023-05-10T06:28:42;3.13;;;0.88;;
44766;SDS011;30487;48.716;9.272;2023-05-10T06:31:07;3.85;;;0.73;;
44766;SDS011;30487;48.716;9.272;2023-05-10T06:33:33;1.65;;;0.60;;
44766;SDS011;30487;48.716;9.272;2023-05-10T06:35:59;5.05;;;0.80;;
44766;SDS011;30487;48.716;9.272;2023-05-10T06:38:25;2.22;;;0.73;;
44766;SDS011;30487;48.716;9.272;2023-05-10T06:40:50;2.15;;;0.68;;
44766;SDS011;30487;48.716;9.272;2023-05-10T06:43:16;2.05;;;0.80;;
44766;SDS011;30487;48.716;9.272;2023-05-10T06:45:42;1.95;;;1.13;;
44766;SDS011;30487;48.716;9.272;2023-05-10T06:48:07;6.28;;;0.70;;
44766;SDS011;30487;48.716;9.272;2023-05-10T06:50:33;2.08;;;0.70;;
44766;SDS011;30487;48.716;9.272;2023-05-10T06:52:59;1.83;;;0.88;;
44766;SDS011;30487;48.716;9.272;2023-05-10T06:55:26;1.15;;;0.60;;
44766;SDS011;30487;48.716;9.272;2023-05-10T06:57:52;1.13;;;0.60;;
44766;SDS011;30487;48.716;9.272;2023-05-10T07:00:18;1.48;;;0.63;;
44766;SDS011;30487;48.716;9.272;2023-05-10T07:02:44;0.98;;;0.68;;
44766;SDS011;30487;48.716;9.272;2023-05-10T07:05:10;1.95;;;0.57;;
44766;SDS011;30487;48.716;9.272;2023-05-10T07:07:36;4.10;;;0.70;;
44766;SDS011;30487;48.716;9.272;2023-05-10T07:10:02;2.47;;;0.75;;
44766;SDS011;30487;48.716;9.272;2023-05-10T07:12:28;1.17;;;0.60;;
44766;SDS011;30487;48.716;9.272;2023-05-10T07:14:53;1.90;;;0.70;;
44766;SDS011;30487;48.716;9.272;2023-05-10T07:17:19;3.20;;;0.75;;
44766;SDS011;30487;48.716;9.272;2023-05-10T07:19:45;2.17;;;0.70;;
44766;SDS011;30487;48.716;9.272;2023-05-10T07:22:10;2.00;;;0.60;;
44766;SDS011;30487;48.716;9.272;2023-05-10T07:24:36;1.60;;;0.70;;
44766;SDS011;30487;48.716;9.272;2023-05-10T07:27:03;2.42;;;0.70;;
44766;SDS011;30487;48.716;9.272;2023-05-10T07:29:29;2.58;;;0.77;;
44766;SDS011;30487;48.716;9.272;2023-05-10T07:31:54;1.50;;;0.60;;
44766;SDS011;30487;48.716;9.272;2023-05-10T07:34:20;2.28;;;0.80;;
44766;SDS011;30487;48.716;9.272;2023-05-10T07:36:46;1.23;;;0.68;;
44766;SDS011;30487;48.716;9.272;2023-05-10T07:39:12;1.98;;;0.63;;
44766;SDS011;30487;48.716;9.272;2023-05-10T07:41:37;2.40;;;0.63;;
44766;SDS011;30487;48.716;9.272;2023-05-10T07:44:03;1.08;;;0.68;;
44766;SDS011;30487;48.716;9.272;2023-05-10T07:46:29;0.90;;;0.68;;
44766;SDS011;30487;48.716;9.272;2023-05-10T07:48:55;1.30;;;0.70;;
44766;SDS011;30487;48.716;9.272;2023-05-10T07:51:21;2.17;;;0.70;;
44766;SDS011;30487;48.716;9.272;2023-05-10T07:53:46;1.52;;;0.82;;
44766;SDS011;30487;48.716;9.272;2023-05-10T07:58:57;2.75;;;0.77;;
44766;SDS011;30487;48.716;9.272;2023-05-10T08:01:27;1.17;;;0.70;;
44766;SDS011;30487;48.716;9.272;2023-05-10T08:03:56;0.95;;;0.60;;
44766;SDS011;30487;48.716;9.272;2023-05-10T08:06:21;1.75;;;0.70;;
44766;SDS011;30487;48.716;9.272;2023-05-10T08:08:47;1.77;;;0.77;;
44766;SDS011;30487;48.716;9.272;2023-05-10T08:11:18;3.58;;;1.02;;
44766;SDS011;30487;48.716;9.272;2023-05-10T08:13:45;2.70;;;0.70;;
44766;SDS011;30487;48.716;9.272;2023-05-10T08:16:11;0.93;;;0.70;;
44766;SDS011;30487;48.716;9.272;2023-05-10T08:18:38;1.55;;;0.70;;
44766;SDS011;30487;48.716;9.272;2023-05-10T08:21:04;3.28;;;0.68;;
44766;SDS011;30487;48.716;9.272;2023-05-10T08:23:30;3.95;;;0.98;;
44766;SDS011;30487;48.716;9.272;2023-05-10T08:25:56;2.33;;;0.70;;
44766;SDS011;30487;48.716;9.272;2023-05-10T08:28:22;2.53;;;0.70;;
44766;SDS011;30487;48.716;9.272;2023-05-10T08:30:47;1.40;;;0.60;;
44766;SDS011;30487;48.716;9.272;2023-05-10T08:33:14;1.75;;;0.60;;
44766;SDS011;30487;48.716;9.272;2023-05-10T08:35:40;0.70;;;0.50;;
44766;SDS011;30487;48.716;9.272;2023-05-10T08:38:06;1.63;;;0.57;;
44766;SDS011;30487;48.716;9.272;2023-05-10T08:40:32;1.15;;;0.60;;
44766;SDS011;30487;48.716;9.272;2023-05-10T08:43:08;1.73;;;0.65;;
44766;SDS011;30487;48.716;9.272;2023-05-10T08:45:42;2.92;;;0.60;;
44766;SDS011;30487;48.716;9.272;2023-05-10T08:48:10;1.25;;;0.63;;
44766;SDS011;30487;48.716;9.272;2023-05-10T08:50:37;0.63;;;0.43;;
44766;SDS011;30487;48.716;9.272;2023-05-10T08:53:09;0.70;;;0.40;;
44766;SDS011;30487;48.716;9.272;2023-05-10T08:55:36;1.73;;;0.50;;
44766;SDS011;30487;48.716;9.272;2023-05-10T08:58:03;1.42;;;0.40;;
44766;SDS011;30487;48.716;9.272;2023-05-10T09:00:30;1.10;;;0.40;;
44766;SDS011;30487;48.716;9.272;2023-05-10T09:02:57;1.67;;;0.40;;
44766;SDS011;30487;48.716;9.272;2023-05-10T09:05:23;0.98;;;0.60;;
44766;SDS011;30487;48.716;9.272;2023-05-10T09:07:49;1.73;;;0.60;;
44766;SDS011;30487;48.716;9.272;2023-05-10T09:10:15;1.35;;;0.40;;
44766;SDS011;30487;48.716;9.272;2023-05-10T09:12:41;0.55;;;0.40;;
44766;SDS011;30487;48.716;9.272;2023-05-10T09:15:09;1.70;;;0.52;;
44766;SDS011;30487;48.716;9.272;2023-05-10T09:17:35;1.60;;;0.43;;
44766;SDS011;30487;48.716;9.272;2023-05-10T09:20:02;2.33;;;0.43;;
44766;SDS011;30487;48.716;9.272;2023-05-10T09:22:32;1.02;;;0.40;;
44766;SDS011;30487;48.716;9.272;2023-05-10T09:25:08;2.60;;;0.50;;
44766;SDS011;30487;48.716;9.272;2023-05-10T09:27:36;2.88;;;0.50;;
44766;SDS011;30487;48.716;9.272;2023-05-10T09:30:03;3.85;;;0.40;;
44766;SDS011;30487;48.716;9.272;2023-05-10T09:32:37;1.80;;;0.50;;
44766;SDS011;30487;48.716;9.272;2023-05-10T09:35:07;3.40;;;0.40;;
44766;SDS011;30487;48.716;9.272;2023-05-10T09:37:34;1.63;;;0.32;;
44766;SDS011;30487;48.716;9.272;2023-05-10T09:39:59;0.50;;;0.40;;
44766;SDS011;30487;48.716;9.272;2023-05-10T09:42:25;0.93;;;0.30;;
44766;SDS011;30487;48.716;9.272;2023-05-10T09:44:51;2.03;;;0.43;;
44766;SDS011;30487;48.716;9.272;2023-05-10T09:47:17;0.98;;;0.40;;
44766;SDS011;30487;48.716;9.272;2023-05-10T09:49:44;0.85;;;0.30;;
44766;SDS011;30487;48.716;9.272;2023-05-10T09:52:14;1.13;;;0.38;;
44766;SDS011;30487;48.716;9.272;2023-05-10T09:54:42;2.55;;;0.50;;
44766;SDS011;30487;48.716;9.272;2023-05-10T09:57:21;0.90;;;0.45;;
44766;SDS011;30487;48.716;9.272;2023-05-10T09:59:48;0.70;;;0.30;;
44766;SDS011;30487;48.716;9.272;2023-05-10T10:02:14;1.15;;;0.50;;
44766;SDS011;30487;48.716;9.272;2023-05-10T10:04:40;2.03;;;0.38;;
44766;SDS011;30487;48.716;9.272;2023-05-10T10:07:06;1.65;;;0.30;;
44766;SDS011;30487;48.716;9.272;2023-05-10T10:09:33;1.02;;;0.45;;
44766;SDS011;30487;48.716;9.272;2023-05-10T10:12:00;2.40;;;0.60;;
44766;SDS011;30487;48.716;9.272;2023-05-10T10:14:26;2.28;;;0.70;;
44766;SDS011;30487;48.716;9.272;2023-05-10T10:16:53;3.97;;;0.70;;
44766;SDS011;30487;48.716;9.272;2023-05-10T10:19:19;1.23;;;0.55;;
44766;SDS011;30487;48.716;9.272;2023-05-10T10:21:45;0.90;;;0.30;;
44766;SDS011;30487;48.716;9.272;2023-05-10T10:24:11;1.60;;;0.50;;
44766;SDS011;30487;48.716;9.272;2023-05-10T10:26:37;0.98;;;0.47;;
44766;SDS011;30487;48.716;9.272;2023-05-10T10:29:14;0.50;;;0.40;;
44766;SDS011;30487;48.716;9.272;2023-05-10T10:34:28;2.22;;;0.38;;
44766;SDS011;30487;48.716;9.272;2023-05-10T10:36:55;2.15;;;0.40;;
44766;SDS011;30487;48.716;9.272;2023-05-10T10:39:22;1.02;;;0.38;;
44766;SDS011;30487;48.716;9.272;2023-05-10T10:41:52;0.40;;;0.40;;
44766;SDS011;30487;48.716;9.272;2023-05-10T10:44:23;1.67;;;0.40;;
44766;SDS011;30487;48.716;9.272;2023-05-10T10:49:34;0.40;;;0.30;;
44766;SDS011;30487;48.716;9.272;2023-05-10T10:57:42;2.40;;;0.40;;
44766;SDS011;30487;48.716;9.272;2023-05-10T11:08:10;1.38;;;0.30;;
44766;SDS011;30487;48.716;9.272;2023-05-10T11:10:37;0.52;;;0.32;;
44766;SDS011;30487;48.716;9.272;2023-05-10T11:13:04;3.60;;;0.45;;
44766;SDS011;30487;48.716;9.272;2023-05-10T11:15:35;1.38;;;0.30;;
44766;SDS011;30487;48.716;9.272;2023-05-10T11:18:18;0.68;;;0.40;;
44766;SDS011;30487;48.716;9.272;2023-05-10T11:21:03;0.80;;;0.40;;
44766;SDS011;30487;48.716;9.272;2023-05-10T11:23:33;1.95;;;0.40;;
44766;SDS011;30487;48.716;9.272;2023-05-10T11:26:14;0.88;;;0.40;;
44766;SDS011;30487;48.716;9.272;2023-05-10T11:28:43;1.55;;;0.40;;
44766;SDS011;30487;48.716;9.272;2023-05-10T11:31:09;2.17;;;0.50;;
44766;SDS011;30487;48.716;9.272;2023-05-10T11:33:47;1.25;;;0.50;;
44766;SDS011;30487;48.716;9.272;2023-05-10T11:36:19;2.88;;;0.43;;
44766;SDS011;30487;48.716;9.272;2023-05-10T11:38:46;0.90;;;0.45;;
44766;SDS011;30487;48.716;9.272;2023-05-10T11:41:12;1.17;;;0.40;;
44766;SDS011;30487;48.716;9.272;2023-05-10T11:43:38;0.50;;;0.40;;
44766;SDS011;30487;48.716;9.272;2023-05-10T11:46:08;1.70;;;0.50;;
44766;SDS011;30487;48.716;9.272;2023-05-10T11:48:35;2.03;;;0.50;;
44766;SDS011;30487;48.716;9.272;2023-05-10T11:51:03;1.83;;;0.50;;
44766;SDS011;30487;48.716;9.272;2023-05-10T11:53:29;3.03;;;0.50;;
44766;SDS011;30487;48.716;9.272;2023-05-10T11:56:02;0.68;;;0.32;;
44766;SDS011;30487;48.716;9.272;2023-05-10T11:58:30;2.05;;;0.50;;
44766;SDS011;30487;48.716;9.272;2023-05-10T12:00:56;0.95;;;0.50;;
44766;SDS011;30487;48.716;9.272;2023-05-10T12:03:22;2.97;;;0.60;;
44766;SDS011;30487;48.716;9.272;2023-05-10T12:05:48;0.93;;;0.50;;
44766;SDS011;30487;48.716;9.272;2023-05-10T12:08:14;3.60;;;0.60;;
44766;SDS011;30487;48.716;9.272;2023-05-10T12:10:40;1.67;;;0.40;;
44766;SDS011;30487;48.716;9.272;2023-05-10T12:13:15;2.05;;;0.60;;
44766;SDS011;30487;48.716;9.272;2023-05-10T12:15:42;2.33;;;0.60;;
44766;SDS011;30487;48.716;9.272;2023-05-10T12:18:11;1.98;;;0.60;;
44766;SDS011;30487;48.716;9.272;2023-05-10T12:20:38;1.50;;;0.47;;
44766;SDS011;30487;48.716;9.272;2023-05-10T12:23:07;1.55;;;0.50;;
44766;SDS011;30487;48.716;9.272;2023-05-10T12:25:34;1.45;;;0.50;;
44766;SDS011;30487;48.716;9.272;2023-05-10T12:28:04;0.60;;;0.43;;
44766;SDS011;30487;48.716;9.272;2023-05-10T12:30:32;1.33;;;0.57;;
44766;SDS011;30487;48.716;9.272;2023-05-10T12:33:19;2.50;;;0.65;;
44766;SDS011;30487;48.716;9.272;2023-05-10T12:38:32;1.08;;;0.60;;
44766;SDS011;30487;48.716;9.272;2023-05-10T12:41:00;1.00;;;0.50;;
44766;SDS011;30487;48.716;9.272;2023-05-10T12:43:27;6.95;;;0.60;;
44766;SDS011;30487;48.716;9.272;2023-05-10T12:45:53;1.48;;;0.60;;
44766;SDS011;30487;48.716;9.272;2023-05-10T12:48:18;2.17;;;0.60;;
44766;SDS011;30487;48.716;9.272;2023-05-10T12:50:44;1.23;;;0.43;;
44766;SDS011;30487;48.716;9.272;2023-05-10T12:53:10;1.58;;;0.57;;
44766;SDS011;30487;48.716;9.272;2023-05-10T12:55:36;0.73;;;0.43;;
44766;SDS011;30487;48.716;9.272;2023-05-10T12:58:02;2.05;;;0.50;;
44766;SDS011;30487;48.716;9.272;2023-05-10T13:00:27;1.35;;;0.57;;
44766;SDS011;30487;48.716;9.272;2023-05-10T13:02:53;4.13;;;0.70;;
44766;SDS011;30487;48.716;9.272;2023-05-10T13:05:18;4.63;;;0.60;;
44766;SDS011;30487;48.716;9.272;2023-05-10T13:07:44;4.32;;;0.65;;
44766;SDS011;30487;48.716;9.272;2023-05-10T13:10:10;3.30;;;0.60;;
44766;SDS011;30487;48.716;9.272;2023-05-10T13:12:36;1.83;;;0.60;;
44766;SDS011;30487;48.716;9.272;2023-05-10T13:15:02;2.67;;;0.40;;
44766;SDS011;30487;48.716;9.272;2023-05-10T13:17:28;1.23;;;0.50;;
44766;SDS011;30487;48.716;9.272;2023-05-10T13:19:53;1.27;;;0.50;;
44766;SDS011;30487;48.716;9.272;2023-05-10T13:22:19;1.05;;;0.43;;
44766;SDS011;30487;48.716;9.272;2023-05-10T13:24:44;1.92;;;0.60;;
44766;SDS011;30487;48.716;9.272;2023-05-10T13:27:10;2.60;;;0.55;;
44766;SDS011;30487;48.716;9.272;2023-05-10T13:29:36;1.20;;;0.50;;
44766;SDS011;30487;48.716;9.272;2023-05-10T13:32:01;4.95;;;0.82;;
44766;SDS011;30487;48.716;9.272;2023-05-10T13:34:27;1.40;;;0.60;;
44766;SDS011;30487;48.716;9.272;2023-05-10T13:36:53;1.75;;;0.80;;
44766;SDS011;30487;48.716;9.272;2023-05-10T13:39:19;3.50;;;0.82;;
44766;SDS011;30487;48.716;9.272;2023-05-10T13:41:45;1.60;;;0.50;;
44766;SDS011;30487;48.716;9.272;2023-05-10T13:44:12;1.88;;;0.50;;
44766;SDS011;30487;48.716;9.272;2023-05-10T13:46:38;2.55;;;0.63;;
44766;SDS011;30487;48.716;9.272;2023-05-10T13:49:04;1.30;;;0.60;;
44766;SDS011;30487;48.716;9.272;2023-05-10T13:51:30;1.42;;;0.45;;
44766;SDS011;30487;48.716;9.272;2023-05-10T13:53:56;2.13;;;0.80;;
44766;SDS011;30487;48.716;9.272;2023-05-10T13:56:22;3.17;;;0.70;;
44766;SDS011;30487;48.716;9.272;2023-05-10T13:58:48;3.00;;;0.75;;
44766;SDS011;30487;48.716;9.272;2023-05-10T14:01:14;4.05;;;0.98;;
44766;SDS011;30487;48.716;9.272;2023-05-10T14:03:40;5.20;;;1.30;;
44766;SDS011;30487;48.716;9.272;2023-05-10T14:06:05;5.68;;;1.10;;
44766;SDS011;30487;48.716;9.272;2023-05-10T14:08:32;5.00;;;1.30;;
44766;SDS011;30487;48.716;9.272;2023-05-10T14:10:59;1.85;;;0.88;;
44766;SDS011;30487;48.716;9.272;2023-05-10T14:13:24;4.82;;;1.20;;
44766;SDS011;30487;48.716;9.272;2023-05-10T14:15:50;2.83;;;0.93;;
44766;SDS011;30487;48.716;9.272;2023-05-10T14:18:17;5.43;;;1.10;;
44766;SDS011;30487;48.716;9.272;2023-05-10T14:20:43;3.60;;;1.08;;
44766;SDS011;30487;48.716;9.272;2023-05-10T14:23:08;3.72;;;1.27;;
44766;SDS011;30487;48.716;9.272;2023-05-10T14:25:34;2.25;;;0.90;;
44766;SDS011;30487;48.716;9.272;2023-05-10T14:28:00;2.15;;;0.82;;
44766;SDS011;30487;48.716;9.272;2023-05-10T14:30:25;4.32;;;0.82;;
44766;SDS011;30487;48.716;9.272;2023-05-10T14:32:51;1.90;;;0.95;;
44766;SDS011;30487;48.716;9.272;2023-05-10T14:35:19;2.03;;;0.90;;
44766;SDS011;30487;48.716;9.272;2023-05-10T14:37:44;3.22;;;0.80;;
44766;SDS011;30487;48.716;9.272;2023-05-10T14:40:10;3.78;;;0.75;;
44766;SDS011;30487;48.716;9.272;2023-05-10T14:42:37;1.48;;;0.70;;
44766;SDS011;30487;48.716;9.272;2023-05-10T14:45:03;2.00;;;0.52;;
44766;SDS011;30487;48.716;9.272;2023-05-10T14:47:29;2.25;;;0.60;;
44766;SDS011;30487;48.716;9.272;2023-05-10T14:49:55;2.80;;;0.50;;
44766;SDS011;30487;48.716;9.272;2023-05-10T14:52:20;1.45;;;0.60;;
44766;SDS011;30487;48.716;9.272;2023-05-10T14:54:46;1.92;;;0.63;;
44766;SDS011;30487;48.716;9.272;2023-05-10T14:57:11;2.83;;;0.60;;
44766;SDS011;30487;48.716;9.272;2023-05-10T14:59:37;1.08;;;0.55;;
44766;SDS011;30487;48.716;9.272;2023-05-10T15:02:03;2.15;;;0.60;;
44766;SDS011;30487;48.716;9.272;2023-05-10T15:04:29;3.67;;;0.80;;
44766;SDS011;30487;48.716;9.272;2023-05-10T15:06:55;2.65;;;0.60;;
44766;SDS011;30487;48.716;9.272;2023-05-10T15:09:24;1.05;;;0.60;;
44766;SDS011;30487;48.716;9.272;2023-05-10T15:11:50;2.78;;;0.60;;
44766;SDS011;30487;48.716;9.272;2023-05-10T15:14:15;2.17;;;0.68;;
44766;SDS011;30487;48.716;9.272;2023-05-10T15:16:41;2.58;;;0.70;;
44766;SDS011;30487;48.716;9.272;2023-05-10T15:19:07;0.82;;;0.50;;
44766;SDS011;30487;48.716;9.272;2023-05-10T15:21:32;1.27;;;0.70;;
44766;SDS011;30487;48.716;9.272;2023-05-10T15:24:03;3.22;;;0.50;;
44766;SDS011;30487;48.716;9.272;2023-05-10T15:26:30;1.33;;;0.60;;
44766;SDS011;30487;48.716;9.272;2023-05-10T15:28:55;3.72;;;0.80;;
44766;SDS011;30487;48.716;9.272;2023-05-10T15:31:21;2.03;;;0.63;;